KFKN/FKN METAR and TAF weather

Enter ICAO airport designator
Station Type Date Time Source
KFKN METAR 2022/10/01 08:55 UTC NOAA

KFKN 010855Z AUTO 00000KT 7SM OVC047 19/18 A2973 RMK AO2 T01850181


Station Type Date Time Source
KFKN Decoded METAR 2022/10/01 08:55 UTC NOAA

Franklin / J B Rose, VA, United States (KFKN) 36-42N 076-54W
Oct 01, 2022 - 04:55 AM EDT / 2022.10.01 0855 UTC
Wind: Calm:0
Visibility: 7 mile(s):0
Sky conditions: overcast
Temperature: 65.3 F (18.5 C)
Dew Point: 64.6 F (18.1 C)
Relative Humidity: 97%
Pressure (altimeter): 29.73 in. Hg (1006 hPa)
ob: KFKN 010855Z AUTO 00000KT 7SM OVC047 19/18 A2973 RMK AO2 T01850181
cycle: 9

Station Type Date Time Source
KFKN TAF UTC NOAA

Error!

Example: see airport list